aviador You're here:

KUSE Decoded Metar

in
Report Time2018-06-17 21:45:00
UTC Time2018-06-17 21:51:04
Flight Rules vfr VFR
Wind230° at 08 Gusting to 14 kt
W.Decomp.*RWY 27: 6.1 kt HW 5.1 kt LCW
RWY 18: 5.1 kt HW 6.1 kt RCW
W.Rank230° ranks 2
Current wind is below 230° avg. (9.4)
Visibility9999 m
Phenomena:N/A
Clouds:Few 095 Hf
Expected CloudBase > 5,200 ft AGL from Temp-Dew spread
CeilingNone
Temp34°C
Dew Point21°C (47% RH)
Heat Index37.4°C
QNH1016 hPa
Raw Report
KUSE 172145Z AUTO 23008G14KT 10SM FEW095 34/21 A3001 RMK AO2=

Extra information for KUSE:More info

Social comments